sensor_id;sensor_type;location;lat;lon;timestamp;temperature;humidity
59311;DHT22;45078;51.654;21.250;2023-08-21T00:00:03;19.90;99.90
59311;DHT22;45078;51.654;21.250;2023-08-21T00:02:30;19.90;99.90
59311;DHT22;45078;51.654;21.250;2023-08-21T00:04:55;19.90;99.90
59311;DHT22;45078;51.654;21.250;2023-08-21T00:07:22;19.80;99.90
59311;DHT22;45078;51.654;21.250;2023-08-21T00:09:47;19.70;99.90
59311;DHT22;45078;51.654;21.250;2023-08-21T00:12:13;19.70;99.90
59311;DHT22;45078;51.654;21.250;2023-08-21T00:14:39;19.60;99.90
59311;DHT22;45078;51.654;21.250;2023-08-21T00:17:05;19.60;99.90
59311;DHT22;45078;51.654;21.250;2023-08-21T00:19:32;19.60;99.90
59311;DHT22;45078;51.654;21.250;2023-08-21T00:21:57;19.50;99.90
59311;DHT22;45078;51.654;21.250;2023-08-21T00:24:23;19.50;99.90
59311;DHT22;45078;51.654;21.250;2023-08-21T00:26:49;19.50;99.90
59311;DHT22;45078;51.654;21.250;2023-08-21T00:29:15;19.50;99.90
59311;DHT22;45078;51.654;21.250;2023-08-21T00:31:40;19.50;99.90
59311;DHT22;45078;51.654;21.250;2023-08-21T00:34:06;19.50;99.90
59311;DHT22;45078;51.654;21.250;2023-08-21T00:36:32;19.40;99.90
59311;DHT22;45078;51.654;21.250;2023-08-21T00:38:58;19.40;99.90
59311;DHT22;45078;51.654;21.250;2023-08-21T00:41:24;19.30;99.90
59311;DHT22;45078;51.654;21.250;2023-08-21T00:43:49;19.30;99.90
59311;DHT22;45078;51.654;21.250;2023-08-21T00:46:15;19.30;99.90
59311;DHT22;45078;51.654;21.250;2023-08-21T00:48:43;19.20;99.90
59311;DHT22;45078;51.654;21.250;2023-08-21T00:51:09;19.20;99.90
59311;DHT22;45078;51.654;21.250;2023-08-21T00:53:36;19.20;99.90
59311;DHT22;45078;51.654;21.250;2023-08-21T00:56:02;19.20;99.90
59311;DHT22;45078;51.654;21.250;2023-08-21T00:58:28;19.10;99.90
59311;DHT22;45078;51.654;21.250;2023-08-21T01:00:54;19.10;99.90
59311;DHT22;45078;51.654;21.250;2023-08-21T01:03:20;19.10;99.90
59311;DHT22;45078;51.654;21.250;2023-08-21T01:05:46;19.10;99.90
59311;DHT22;45078;51.654;21.250;2023-08-21T01:08:17;19.10;99.90
59311;DHT22;45078;51.654;21.250;2023-08-21T01:16:08;19.00;99.90
59311;DHT22;45078;51.654;21.250;2023-08-21T01:18:34;19.00;99.90
59311;DHT22;45078;51.654;21.250;2023-08-21T01:21:03;19.00;99.90
59311;DHT22;45078;51.654;21.250;2023-08-21T01:23:34;19.00;99.90
59311;DHT22;45078;51.654;21.250;2023-08-21T01:26:00;19.00;99.90
59311;DHT22;45078;51.654;21.250;2023-08-21T01:28:26;19.00;99.90
59311;DHT22;45078;51.654;21.250;2023-08-21T01:31:10;18.90;99.90
59311;DHT22;45078;51.654;21.250;2023-08-21T01:33:53;18.90;99.90
59311;DHT22;45078;51.654;21.250;2023-08-21T01:36:20;18.90;99.90
59311;DHT22;45078;51.654;21.250;2023-08-21T01:38:46;18.90;99.90
59311;DHT22;45078;51.654;21.250;2023-08-21T01:41:13;18.90;99.90
59311;DHT22;45078;51.654;21.250;2023-08-21T01:43:39;18.80;99.90
59311;DHT22;45078;51.654;21.250;2023-08-21T01:46:05;18.80;99.90
59311;DHT22;45078;51.654;21.250;2023-08-21T01:48:31;18.80;99.90
59311;DHT22;45078;51.654;21.250;2023-08-21T01:50:57;18.80;99.90
59311;DHT22;45078;51.654;21.250;2023-08-21T01:53:23;18.80;99.90
59311;DHT22;45078;51.654;21.250;2023-08-21T01:55:48;18.80;99.90
59311;DHT22;45078;51.654;21.250;2023-08-21T01:58:14;18.80;99.90
59311;DHT22;45078;51.654;21.250;2023-08-21T02:00:40;18.70;99.90
59311;DHT22;45078;51.654;21.250;2023-08-21T02:03:05;18.70;99.90
59311;DHT22;45078;51.654;21.250;2023-08-21T02:05:37;18.70;99.90
59311;DHT22;45078;51.654;21.250;2023-08-21T02:08:04;18.70;99.90
59311;DHT22;45078;51.654;21.250;2023-08-21T02:10:30;18.70;99.90
59311;DHT22;45078;51.654;21.250;2023-08-21T02:12:56;18.70;99.90
59311;DHT22;45078;51.654;21.250;2023-08-21T02:15:21;18.70;99.90
59311;DHT22;45078;51.654;21.250;2023-08-21T02:17:47;18.70;99.90
59311;DHT22;45078;51.654;21.250;2023-08-21T02:20:13;18.60;99.90
59311;DHT22;45078;51.654;21.250;2023-08-21T02:22:39;18.70;99.90
59311;DHT22;45078;51.654;21.250;2023-08-21T02:25:05;18.70;99.90
59311;DHT22;45078;51.654;21.250;2023-08-21T02:27:30;18.60;99.90
59311;DHT22;45078;51.654;21.250;2023-08-21T02:29:56;18.70;99.90
59311;DHT22;45078;51.654;21.250;2023-08-21T02:32:22;18.80;99.90
59311;DHT22;45078;51.654;21.250;2023-08-21T02:34:47;18.70;99.90
59311;DHT22;45078;51.654;21.250;2023-08-21T02:37:13;18.60;99.90
59311;DHT22;45078;51.654;21.250;2023-08-21T02:39:39;18.60;99.90
59311;DHT22;45078;51.654;21.250;2023-08-21T02:42:05;18.70;99.90
59311;DHT22;45078;51.654;21.250;2023-08-21T02:44:30;18.60;99.90
59311;DHT22;45078;51.654;21.250;2023-08-21T02:46:56;18.60;99.90
59311;DHT22;45078;51.654;21.250;2023-08-21T02:49:22;18.60;99.90
59311;DHT22;45078;51.654;21.250;2023-08-21T02:51:47;18.50;99.90
59311;DHT22;45078;51.654;21.250;2023-08-21T02:54:13;18.50;99.90
59311;DHT22;45078;51.654;21.250;2023-08-21T02:56:39;18.50;99.90
59311;DHT22;45078;51.654;21.250;2023-08-21T02:59:04;18.50;99.90
59311;DHT22;45078;51.654;21.250;2023-08-21T03:01:30;18.60;99.90
59311;DHT22;45078;51.654;21.250;2023-08-21T03:03:56;18.60;99.90
59311;DHT22;45078;51.654;21.250;2023-08-21T03:06:22;18.60;99.90
59311;DHT22;45078;51.654;21.250;2023-08-21T03:08:47;18.60;99.90
59311;DHT22;45078;51.654;21.250;2023-08-21T03:11:13;18.60;99.90
59311;DHT22;45078;51.654;21.250;2023-08-21T03:13:39;18.50;99.90
59311;DHT22;45078;51.654;21.250;2023-08-21T03:16:05;18.50;99.90
59311;DHT22;45078;51.654;21.250;2023-08-21T03:18:31;18.50;99.90
59311;DHT22;45078;51.654;21.250;2023-08-21T03:20:58;18.50;99.90
59311;DHT22;45078;51.654;21.250;2023-08-21T03:23:23;18.50;99.90
59311;DHT22;45078;51.654;21.250;2023-08-21T03:25:52;18.40;99.90
59311;DHT22;45078;51.654;21.250;2023-08-21T03:28:18;18.50;99.90
59311;DHT22;45078;51.654;21.250;2023-08-21T03:30:44;18.50;99.90
59311;DHT22;45078;51.654;21.250;2023-08-21T03:33:09;18.50;99.90
59311;DHT22;45078;51.654;21.250;2023-08-21T03:35:35;18.40;99.90
59311;DHT22;45078;51.654;21.250;2023-08-21T03:38:01;18.50;99.90
59311;DHT22;45078;51.654;21.250;2023-08-21T03:40:27;18.50;99.90
59311;DHT22;45078;51.654;21.250;2023-08-21T03:42:52;18.50;99.90
59311;DHT22;45078;51.654;21.250;2023-08-21T03:45:18;18.50;99.90
59311;DHT22;45078;51.654;21.250;2023-08-21T03:47:44;18.50;99.90
59311;DHT22;45078;51.654;21.250;2023-08-21T03:50:09;18.50;99.90
59311;DHT22;45078;51.654;21.250;2023-08-21T03:52:35;18.50;99.90
59311;DHT22;45078;51.654;21.250;2023-08-21T03:55:01;18.50;99.90
59311;DHT22;45078;51.654;21.250;2023-08-21T03:57:27;18.50;99.90
59311;DHT22;45078;51.654;21.250;2023-08-21T03:59:52;18.50;99.90
59311;DHT22;45078;51.654;21.250;2023-08-21T04:02:18;18.50;99.90
59311;DHT22;45078;51.654;21.250;2023-08-21T04:04:44;18.50;99.90
59311;DHT22;45078;51.654;21.250;2023-08-21T04:07:09;18.50;99.90
59311;DHT22;45078;51.654;21.250;2023-08-21T04:09:35;18.60;99.90
59311;DHT22;45078;51.654;21.250;2023-08-21T04:12:01;18.60;99.90
59311;DHT22;45078;51.654;21.250;2023-08-21T04:14:26;18.70;99.90
59311;DHT22;45078;51.654;21.250;2023-08-21T04:16:52;18.70;99.90
59311;DHT22;45078;51.654;21.250;2023-08-21T04:19:18;18.70;99.90
59311;DHT22;45078;51.654;21.250;2023-08-21T04:21:43;18.70;99.90
59311;DHT22;45078;51.654;21.250;2023-08-21T04:24:09;18.80;99.90
59311;DHT22;45078;51.654;21.250;2023-08-21T04:26:35;18.90;99.90
59311;DHT22;45078;51.654;21.250;2023-08-21T04:29:01;18.90;99.90
59311;DHT22;45078;51.654;21.250;2023-08-21T04:31:26;19.00;99.90
59311;DHT22;45078;51.654;21.250;2023-08-21T04:33:52;19.10;99.90
59311;DHT22;45078;51.654;21.250;2023-08-21T04:36:18;19.20;99.90
59311;DHT22;45078;51.654;21.250;2023-08-21T04:38:43;19.30;99.90
59311;DHT22;45078;51.654;21.250;2023-08-21T04:41:10;19.40;99.90
59311;DHT22;45078;51.654;21.250;2023-08-21T04:43:35;19.50;99.90
59311;DHT22;45078;51.654;21.250;2023-08-21T04:46:02;19.60;99.90
59311;DHT22;45078;51.654;21.250;2023-08-21T04:48:29;19.70;99.90
59311;DHT22;45078;51.654;21.250;2023-08-21T04:50:54;19.80;99.90
59311;DHT22;45078;51.654;21.250;2023-08-21T04:53:20;20.00;99.90
59311;DHT22;45078;51.654;21.250;2023-08-21T04:55:46;20.10;99.90
59311;DHT22;45078;51.654;21.250;2023-08-21T04:58:12;20.20;99.90
59311;DHT22;45078;51.654;21.250;2023-08-21T05:00:37;20.30;99.90
59311;DHT22;45078;51.654;21.250;2023-08-21T05:03:03;20.40;99.90
59311;DHT22;45078;51.654;21.250;2023-08-21T05:05:29;20.60;99.90
59311;DHT22;45078;51.654;21.250;2023-08-21T05:07:55;20.70;99.90
59311;DHT22;45078;51.654;21.250;2023-08-21T05:10:20;20.90;99.90
59311;DHT22;45078;51.654;21.250;2023-08-21T05:12:46;21.00;99.90
59311;DHT22;45078;51.654;21.250;2023-08-21T05:15:12;21.10;99.90
59311;DHT22;45078;51.654;21.250;2023-08-21T05:17:38;21.30;99.90
59311;DHT22;45078;51.654;21.250;2023-08-21T05:20:04;21.30;99.90
59311;DHT22;45078;51.654;21.250;2023-08-21T05:22:30;21.50;99.90
59311;DHT22;45078;51.654;21.250;2023-08-21T05:24:55;21.50;99.90
59311;DHT22;45078;51.654;21.250;2023-08-21T05:27:21;21.60;99.90
59311;DHT22;45078;51.654;21.250;2023-08-21T05:29:47;21.60;99.90
59311;DHT22;45078;51.654;21.250;2023-08-21T05:32:14;21.70;99.90
59311;DHT22;45078;51.654;21.250;2023-08-21T05:34:40;21.80;99.90
59311;DHT22;45078;51.654;21.250;2023-08-21T05:37:06;21.90;99.90
59311;DHT22;45078;51.654;21.250;2023-08-21T05:39:32;22.10;99.90
59311;DHT22;45078;51.654;21.250;2023-08-21T05:41:59;22.20;99.90
59311;DHT22;45078;51.654;21.250;2023-08-21T05:44:25;22.30;99.90
59311;DHT22;45078;51.654;21.250;2023-08-21T05:46:50;22.40;99.90
59311;DHT22;45078;51.654;21.250;2023-08-21T05:49:16;22.40;99.90
59311;DHT22;45078;51.654;21.250;2023-08-21T05:51:42;22.50;99.90
59311;DHT22;45078;51.654;21.250;2023-08-21T05:54:07;22.50;99.90
59311;DHT22;45078;51.654;21.250;2023-08-21T05:56:33;22.60;99.90
59311;DHT22;45078;51.654;21.250;2023-08-21T05:58:59;22.80;99.90
59311;DHT22;45078;51.654;21.250;2023-08-21T06:01:24;22.90;99.90
59311;DHT22;45078;51.654;21.250;2023-08-21T06:03:50;23.00;99.90
59311;DHT22;45078;51.654;21.250;2023-08-21T06:06:16;23.00;99.90
59311;DHT22;45078;51.654;21.250;2023-08-21T06:08:41;23.00;99.90
59311;DHT22;45078;51.654;21.250;2023-08-21T06:11:07;22.90;99.90
59311;DHT22;45078;51.654;21.250;2023-08-21T06:13:33;22.90;99.90
59311;DHT22;45078;51.654;21.250;2023-08-21T06:15:59;22.90;99.90
59311;DHT22;45078;51.654;21.250;2023-08-21T06:18:24;23.00;99.90
59311;DHT22;45078;51.654;21.250;2023-08-21T06:20:50;23.00;99.90
59311;DHT22;45078;51.654;21.250;2023-08-21T06:23:19;23.00;99.90
59311;DHT22;45078;51.654;21.250;2023-08-21T06:25:48;23.00;99.90
59311;DHT22;45078;51.654;21.250;2023-08-21T06:28:14;23.00;99.90
59311;DHT22;45078;51.654;21.250;2023-08-21T06:30:40;23.00;99.90
59311;DHT22;45078;51.654;21.250;2023-08-21T06:33:06;23.10;99.90
59311;DHT22;45078;51.654;21.250;2023-08-21T06:35:31;23.20;99.90
59311;DHT22;45078;51.654;21.250;2023-08-21T06:37:57;23.30;99.90
59311;DHT22;45078;51.654;21.250;2023-08-21T06:40:23;23.50;99.90
59311;DHT22;45078;51.654;21.250;2023-08-21T06:42:49;23.70;99.90
59311;DHT22;45078;51.654;21.250;2023-08-21T06:45:16;23.90;99.90
59311;DHT22;45078;51.654;21.250;2023-08-21T06:47:43;24.00;99.90
59311;DHT22;45078;51.654;21.250;2023-08-21T06:50:09;24.10;99.90
59311;DHT22;45078;51.654;21.250;2023-08-21T06:52:35;24.30;99.90
59311;DHT22;45078;51.654;21.250;2023-08-21T06:55:01;24.60;99.90
59311;DHT22;45078;51.654;21.250;2023-08-21T06:57:27;24.80;99.90
59311;DHT22;45078;51.654;21.250;2023-08-21T06:59:53;25.00;99.90
59311;DHT22;45078;51.654;21.250;2023-08-21T07:02:19;25.20;99.90
59311;DHT22;45078;51.654;21.250;2023-08-21T07:04:45;25.20;99.90
59311;DHT22;45078;51.654;21.250;2023-08-21T07:07:11;25.20;99.90
59311;DHT22;45078;51.654;21.250;2023-08-21T07:09:37;25.20;99.90
59311;DHT22;45078;51.654;21.250;2023-08-21T07:12:03;25.10;99.90
59311;DHT22;45078;51.654;21.250;2023-08-21T07:14:28;25.00;99.90
59311;DHT22;45078;51.654;21.250;2023-08-21T07:16:54;24.90;99.90
59311;DHT22;45078;51.654;21.250;2023-08-21T07:19:20;24.80;99.90
59311;DHT22;45078;51.654;21.250;2023-08-21T07:21:45;24.70;99.90
59311;DHT22;45078;51.654;21.250;2023-08-21T07:24:11;24.50;99.90
59311;DHT22;45078;51.654;21.250;2023-08-21T07:26:37;24.30;99.90
59311;DHT22;45078;51.654;21.250;2023-08-21T07:29:03;23.90;99.90
59311;DHT22;45078;51.654;21.250;2023-08-21T07:31:30;23.60;99.90
59311;DHT22;45078;51.654;21.250;2023-08-21T07:33:56;23.50;99.90
59311;DHT22;45078;51.654;21.250;2023-08-21T07:36:21;23.30;99.90
59311;DHT22;45078;51.654;21.250;2023-08-21T07:38:49;23.20;99.90
59311;DHT22;45078;51.654;21.250;2023-08-21T07:41:14;23.00;99.90
59311;DHT22;45078;51.654;21.250;2023-08-21T07:43:42;22.80;99.90
59311;DHT22;45078;51.654;21.250;2023-08-21T07:46:10;22.50;99.90
59311;DHT22;45078;51.654;21.250;2023-08-21T07:48:39;22.30;99.90
59311;DHT22;45078;51.654;21.250;2023-08-21T07:51:04;22.10;99.90
59311;DHT22;45078;51.654;21.250;2023-08-21T07:53:30;22.00;99.90
59311;DHT22;45078;51.654;21.250;2023-08-21T07:55:58;22.00;99.90
59311;DHT22;45078;51.654;21.250;2023-08-21T07:58:23;21.90;99.90
59311;DHT22;45078;51.654;21.250;2023-08-21T08:00:49;21.90;99.90
59311;DHT22;45078;51.654;21.250;2023-08-21T08:03:15;21.90;99.90
59311;DHT22;45078;51.654;21.250;2023-08-21T08:05:41;21.90;99.90
59311;DHT22;45078;51.654;21.250;2023-08-21T08:08:10;21.90;99.90
59311;DHT22;45078;51.654;21.250;2023-08-21T08:10:39;21.90;99.90
59311;DHT22;45078;51.654;21.250;2023-08-21T08:13:06;21.90;99.90
59311;DHT22;45078;51.654;21.250;2023-08-21T08:15:32;21.80;99.90
59311;DHT22;45078;51.654;21.250;2023-08-21T08:17:59;21.90;99.90
59311;DHT22;45078;51.654;21.250;2023-08-21T08:20:25;21.80;99.90
59311;DHT22;45078;51.654;21.250;2023-08-21T08:22:51;21.90;99.90
59311;DHT22;45078;51.654;21.250;2023-08-21T08:25:17;21.90;99.90
59311;DHT22;45078;51.654;21.250;2023-08-21T08:27:43;22.00;99.90
59311;DHT22;45078;51.654;21.250;2023-08-21T08:30:10;22.00;99.90
59311;DHT22;45078;51.654;21.250;2023-08-21T08:32:36;22.00;99.90
59311;DHT22;45078;51.654;21.250;2023-08-21T08:35:01;22.10;99.90
59311;DHT22;45078;51.654;21.250;2023-08-21T08:37:27;22.20;99.90
59311;DHT22;45078;51.654;21.250;2023-08-21T08:39:53;22.10;99.90
59311;DHT22;45078;51.654;21.250;2023-08-21T08:42:19;22.20;99.90
59311;DHT22;45078;51.654;21.250;2023-08-21T08:44:44;22.30;99.90
59311;DHT22;45078;51.654;21.250;2023-08-21T08:47:14;22.30;99.90
59311;DHT22;45078;51.654;21.250;2023-08-21T08:49:41;22.40;99.90
59311;DHT22;45078;51.654;21.250;2023-08-21T08:52:07;22.50;99.90
59311;DHT22;45078;51.654;21.250;2023-08-21T08:54:33;22.60;99.90
59311;DHT22;45078;51.654;21.250;2023-08-21T08:57:01;22.70;99.90
59311;DHT22;45078;51.654;21.250;2023-08-21T08:59:30;22.90;99.90
59311;DHT22;45078;51.654;21.250;2023-08-21T09:01:56;22.80;99.90
59311;DHT22;45078;51.654;21.250;2023-08-21T09:04:22;23.00;99.90
59311;DHT22;45078;51.654;21.250;2023-08-21T09:06:48;23.10;99.90
59311;DHT22;45078;51.654;21.250;2023-08-21T09:09:14;23.10;99.90
59311;DHT22;45078;51.654;21.250;2023-08-21T09:11:44;23.30;99.90
59311;DHT22;45078;51.654;21.250;2023-08-21T09:14:11;23.40;99.90
59311;DHT22;45078;51.654;21.250;2023-08-21T09:16:37;23.40;99.90
59311;DHT22;45078;51.654;21.250;2023-08-21T09:19:03;23.50;99.90
59311;DHT22;45078;51.654;21.250;2023-08-21T09:21:29;23.50;99.90
59311;DHT22;45078;51.654;21.250;2023-08-21T09:24:01;23.40;99.90
59311;DHT22;45078;51.654;21.250;2023-08-21T09:26:31;23.60;99.90
59311;DHT22;45078;51.654;21.250;2023-08-21T09:29:03;23.80;99.90
59311;DHT22;45078;51.654;21.250;2023-08-21T09:31:31;24.00;99.90
59311;DHT22;45078;51.654;21.250;2023-08-21T09:33:59;24.40;99.90
59311;DHT22;45078;51.654;21.250;2023-08-21T09:36:26;24.80;99.90
59311;DHT22;45078;51.654;21.250;2023-08-21T09:38:52;25.00;99.90
59311;DHT22;45078;51.654;21.250;2023-08-21T09:41:22;25.00;99.90
59311;DHT22;45078;51.654;21.250;2023-08-21T09:43:49;24.90;99.90
59311;DHT22;45078;51.654;21.250;2023-08-21T09:46:16;25.00;99.90
59311;DHT22;45078;51.654;21.250;2023-08-21T09:48:43;25.20;99.90
59311;DHT22;45078;51.654;21.250;2023-08-21T09:51:10;25.20;99.90
59311;DHT22;45078;51.654;21.250;2023-08-21T09:53:37;25.20;99.90
59311;DHT22;45078;51.654;21.250;2023-08-21T09:56:03;25.40;99.90
59311;DHT22;45078;51.654;21.250;2023-08-21T09:58:29;25.40;99.90
59311;DHT22;45078;51.654;21.250;2023-08-21T10:00:59;25.30;99.90
59311;DHT22;45078;51.654;21.250;2023-08-21T10:03:26;25.10;99.90
59311;DHT22;45078;51.654;21.250;2023-08-21T10:05:55;25.30;99.90
59311;DHT22;45078;51.654;21.250;2023-08-21T10:08:24;25.50;99.90
59311;DHT22;45078;51.654;21.250;2023-08-21T10:10:51;25.50;99.90
59311;DHT22;45078;51.654;21.250;2023-08-21T10:13:17;25.70;99.90
59311;DHT22;45078;51.654;21.250;2023-08-21T10:15:44;25.90;99.90
59311;DHT22;45078;51.654;21.250;2023-08-21T10:18:37;25.90;99.90
59311;DHT22;45078;51.654;21.250;2023-08-21T10:21:23;25.80;99.90
59311;DHT22;45078;51.654;21.250;2023-08-21T10:23:54;25.60;99.90
59311;DHT22;45078;51.654;21.250;2023-08-21T10:26:22;25.50;99.90
59311;DHT22;45078;51.654;21.250;2023-08-21T10:28:57;25.50;99.90
59311;DHT22;45078;51.654;21.250;2023-08-21T10:31:28;25.70;99.90
59311;DHT22;45078;51.654;21.250;2023-08-21T10:33:55;25.90;99.90
59311;DHT22;45078;51.654;21.250;2023-08-21T10:39:27;26.50;99.90
59311;DHT22;45078;51.654;21.250;2023-08-21T10:49:54;26.80;99.90
59311;DHT22;45078;51.654;21.250;2023-08-21T10:52:31;26.70;99.90
59311;DHT22;45078;51.654;21.250;2023-08-21T10:55:01;26.80;99.90
59311;DHT22;45078;51.654;21.250;2023-08-21T10:57:31;26.90;99.90
59311;DHT22;45078;51.654;21.250;2023-08-21T11:00:05;27.10;99.90
59311;DHT22;45078;51.654;21.250;2023-08-21T11:02:35;27.10;99.90
59311;DHT22;45078;51.654;21.250;2023-08-21T11:05:02;27.10;99.90
59311;DHT22;45078;51.654;21.250;2023-08-21T11:07:40;27.20;99.90
59311;DHT22;45078;51.654;21.250;2023-08-21T11:10:07;27.20;99.90
59311;DHT22;45078;51.654;21.250;2023-08-21T11:12:34;27.10;99.90
59311;DHT22;45078;51.654;21.250;2023-08-21T11:15:00;27.00;99.90
59311;DHT22;45078;51.654;21.250;2023-08-21T11:17:25;27.10;99.90
59311;DHT22;45078;51.654;21.250;2023-08-21T11:19:51;27.20;99.90
59311;DHT22;45078;51.654;21.250;2023-08-21T11:22:17;27.30;99.90
59311;DHT22;45078;51.654;21.250;2023-08-21T11:24:47;27.50;99.90
59311;DHT22;45078;51.654;21.250;2023-08-21T11:27:15;27.70;99.90
59311;DHT22;45078;51.654;21.250;2023-08-21T11:29:45;27.50;99.90
59311;DHT22;45078;51.654;21.250;2023-08-21T11:32:13;27.60;99.90
59311;DHT22;45078;51.654;21.250;2023-08-21T11:34:40;27.70;99.90
59311;DHT22;45078;51.654;21.250;2023-08-21T11:37:06;27.80;99.90
59311;DHT22;45078;51.654;21.250;2023-08-21T11:39:43;28.00;99.90
59311;DHT22;45078;51.654;21.250;2023-08-21T11:42:10;28.00;99.90
59311;DHT22;45078;51.654;21.250;2023-08-21T11:44:45;28.00;99.90
59311;DHT22;45078;51.654;21.250;2023-08-21T11:47:11;27.90;99.90
59311;DHT22;45078;51.654;21.250;2023-08-21T11:49:40;27.80;99.90
59311;DHT22;45078;51.654;21.250;2023-08-21T11:52:12;27.80;99.90
59311;DHT22;45078;51.654;21.250;2023-08-21T11:54:39;27.70;99.90
59311;DHT22;45078;51.654;21.250;2023-08-21T11:57:07;27.70;99.90
59311;DHT22;45078;51.654;21.250;2023-08-21T11:59:34;27.70;99.90
59311;DHT22;45078;51.654;21.250;2023-08-21T12:01:59;27.70;99.90
59311;DHT22;45078;51.654;21.250;2023-08-21T12:04:26;27.80;99.90
59311;DHT22;45078;51.654;21.250;2023-08-21T12:06:52;27.80;99.90
59311;DHT22;45078;51.654;21.250;2023-08-21T12:09:18;27.80;99.90
59311;DHT22;45078;51.654;21.250;2023-08-21T12:11:47;27.80;99.90
59311;DHT22;45078;51.654;21.250;2023-08-21T12:14:12;27.80;99.90
59311;DHT22;45078;51.654;21.250;2023-08-21T12:16:38;27.90;99.90
59311;DHT22;45078;51.654;21.250;2023-08-21T12:19:04;28.10;99.90
59311;DHT22;45078;51.654;21.250;2023-08-21T12:21:30;28.10;99.90
59311;DHT22;45078;51.654;21.250;2023-08-21T12:23:59;28.30;99.90
59311;DHT22;45078;51.654;21.250;2023-08-21T12:26:25;28.40;99.90
59311;DHT22;45078;51.654;21.250;2023-08-21T12:28:50;28.40;98.80
59311;DHT22;45078;51.654;21.250;2023-08-21T12:31:16;28.50;98.40
59311;DHT22;45078;51.654;21.250;2023-08-21T12:33:43;28.40;98.20
59311;DHT22;45078;51.654;21.250;2023-08-21T12:36:08;28.50;96.00
59311;DHT22;45078;51.654;21.250;2023-08-21T12:38:34;28.50;99.50
59311;DHT22;45078;51.654;21.250;2023-08-21T12:41:02;28.50;97.80
59311;DHT22;45078;51.654;21.250;2023-08-21T12:43:27;28.30;96.70
59311;DHT22;45078;51.654;21.250;2023-08-21T12:45:53;28.20;99.30
59311;DHT22;45078;51.654;21.250;2023-08-21T12:48:19;28.30;98.50
59311;DHT22;45078;51.654;21.250;2023-08-21T12:50:45;28.50;99.90
59311;DHT22;45078;51.654;21.250;2023-08-21T12:53:10;28.80;98.10
59311;DHT22;45078;51.654;21.250;2023-08-21T12:55:36;28.80;95.50
59311;DHT22;45078;51.654;21.250;2023-08-21T12:58:02;28.80;98.10
59311;DHT22;45078;51.654;21.250;2023-08-21T13:00:28;28.90;97.90
59311;DHT22;45078;51.654;21.250;2023-08-21T13:02:53;29.00;96.00
59311;DHT22;45078;51.654;21.250;2023-08-21T13:05:19;28.90;97.00
59311;DHT22;45078;51.654;21.250;2023-08-21T13:07:45;28.90;99.90
59311;DHT22;45078;51.654;21.250;2023-08-21T13:10:11;28.90;95.20
59311;DHT22;45078;51.654;21.250;2023-08-21T13:12:37;28.90;95.30
59311;DHT22;45078;51.654;21.250;2023-08-21T13:15:03;29.30;95.60
59311;DHT22;45078;51.654;21.250;2023-08-21T13:17:29;29.40;96.00
59311;DHT22;45078;51.654;21.250;2023-08-21T13:19:55;29.20;97.40
59311;DHT22;45078;51.654;21.250;2023-08-21T13:22:21;29.10;98.00
59311;DHT22;45078;51.654;21.250;2023-08-21T13:24:46;29.20;96.50
59311;DHT22;45078;51.654;21.250;2023-08-21T13:27:12;29.10;93.30
59311;DHT22;45078;51.654;21.250;2023-08-21T13:29:38;29.20;95.60
59311;DHT22;45078;51.654;21.250;2023-08-21T13:32:05;29.20;95.00
59311;DHT22;45078;51.654;21.250;2023-08-21T13:34:31;29.40;92.80
59311;DHT22;45078;51.654;21.250;2023-08-21T13:36:56;29.50;92.80
59311;DHT22;45078;51.654;21.250;2023-08-21T13:39:22;29.60;94.40
59311;DHT22;45078;51.654;21.250;2023-08-21T13:41:48;29.70;93.80
59311;DHT22;45078;51.654;21.250;2023-08-21T13:44:17;29.70;91.40
59311;DHT22;45078;51.654;21.250;2023-08-21T13:46:43;29.30;91.30
59311;DHT22;45078;51.654;21.250;2023-08-21T13:49:09;29.50;94.30
59311;DHT22;45078;51.654;21.250;2023-08-21T13:51:35;30.10;97.30
59311;DHT22;45078;51.654;21.250;2023-08-21T13:54:01;30.50;94.40
59311;DHT22;45078;51.654;21.250;2023-08-21T13:56:27;30.70;91.40
59311;DHT22;45078;51.654;21.250;2023-08-21T13:58:53;30.60;91.40
59311;DHT22;45078;51.654;21.250;2023-08-21T14:01:19;30.70;86.10
59311;DHT22;45078;51.654;21.250;2023-08-21T14:03:44;30.80;88.50
59311;DHT22;45078;51.654;21.250;2023-08-21T14:06:11;31.30;82.30
59311;DHT22;45078;51.654;21.250;2023-08-21T14:08:38;31.40;87.10
59311;DHT22;45078;51.654;21.250;2023-08-21T14:11:04;31.70;78.50
59311;DHT22;45078;51.654;21.250;2023-08-21T14:13:30;33.00;76.00
59311;DHT22;45078;51.654;21.250;2023-08-21T14:15:55;33.90;70.80
59311;DHT22;45078;51.654;21.250;2023-08-21T14:18:21;34.30;66.80
59311;DHT22;45078;51.654;21.250;2023-08-21T14:20:47;34.10;63.70
59311;DHT22;45078;51.654;21.250;2023-08-21T14:23:12;33.30;63.80
59311;DHT22;45078;51.654;21.250;2023-08-21T14:25:38;34.10;65.40
59311;DHT22;45078;51.654;21.250;2023-08-21T14:28:04;35.10;64.20
59311;DHT22;45078;51.654;21.250;2023-08-21T14:30:30;35.80;62.90
59311;DHT22;45078;51.654;21.250;2023-08-21T14:32:56;35.70;60.00
59311;DHT22;45078;51.654;21.250;2023-08-21T14:35:21;35.60;59.30
59311;DHT22;45078;51.654;21.250;2023-08-21T14:37:47;35.40;58.90
59311;DHT22;45078;51.654;21.250;2023-08-21T14:40:13;34.50;59.00
59311;DHT22;45078;51.654;21.250;2023-08-21T14:42:40;33.50;61.50
59311;DHT22;45078;51.654;21.250;2023-08-21T14:45:06;33.00;63.30
59311;DHT22;45078;51.654;21.250;2023-08-21T14:47:32;33.20;63.20
59311;DHT22;45078;51.654;21.250;2023-08-21T14:49:58;33.80;63.30
59311;DHT22;45078;51.654;21.250;2023-08-21T14:52:24;33.90;61.50
59311;DHT22;45078;51.654;21.250;2023-08-21T14:54:51;33.70;60.40
59311;DHT22;45078;51.654;21.250;2023-08-21T14:57:17;33.80;61.10
59311;DHT22;45078;51.654;21.250;2023-08-21T14:59:43;34.70;60.00
59311;DHT22;45078;51.654;21.250;2023-08-21T15:02:08;33.60;58.40
59311;DHT22;45078;51.654;21.250;2023-08-21T15:04:35;32.50;61.80
59311;DHT22;45078;51.654;21.250;2023-08-21T15:07:02;31.90;62.00
59311;DHT22;45078;51.654;21.250;2023-08-21T15:09:27;32.40;61.70
59311;DHT22;45078;51.654;21.250;2023-08-21T15:11:53;32.70;60.60
59311;DHT22;45078;51.654;21.250;2023-08-21T15:14:19;33.10;60.80
59311;DHT22;45078;51.654;21.250;2023-08-21T15:16:45;33.30;60.60
59311;DHT22;45078;51.654;21.250;2023-08-21T15:19:11;32.20;61.10
59311;DHT22;45078;51.654;21.250;2023-08-21T15:21:36;32.00;59.50
59311;DHT22;45078;51.654;21.250;2023-08-21T15:24:02;31.50;60.80
59311;DHT22;45078;51.654;21.250;2023-08-21T15:26:29;30.80;62.70